createdAt,value
2018-03-19T00:06:27.468Z,12.1
2018-03-19T00:16:25.995Z,12.1
2018-03-19T00:26:24.927Z,12
2018-03-19T00:36:24.713Z,11.6
2018-03-19T00:46:23.796Z,11.4
2018-03-19T00:56:22.828Z,11.6
2018-03-19T01:06:22.142Z,11.7
2018-03-19T01:16:21.596Z,11.8
2018-03-19T01:26:20.249Z,11.7
2018-03-19T01:36:19.761Z,11.4
2018-03-19T01:46:18.993Z,11
2018-03-19T01:56:18.513Z,10.8
2018-03-19T02:06:17.314Z,10.8
2018-03-19T02:16:16.936Z,10.9
2018-03-19T02:26:16.310Z,10.8
2018-03-19T02:36:14.716Z,10.8
2018-03-19T02:46:13.896Z,10.5
2018-03-19T02:56:13.569Z,10.4
2018-03-19T03:06:12.769Z,10.4
2018-03-19T03:16:11.759Z,10.6
2018-03-19T03:26:10.878Z,10.8
2018-03-19T03:36:10.176Z,10.9
2018-03-19T03:46:09.683Z,11
2018-03-19T03:56:08.682Z,11.2
2018-03-19T04:06:08.209Z,11.1
2018-03-19T04:16:07.049Z,11.3
2018-03-19T04:26:06.133Z,11.3
2018-03-19T04:36:05.318Z,11.3
2018-03-19T04:46:04.414Z,11.4
2018-03-19T04:56:03.868Z,11.3
2018-03-19T05:06:03.057Z,10.2
2018-03-19T05:16:02.551Z,8.4
2018-03-19T05:26:01.496Z,8.3
2018-03-19T05:36:00.427Z,8
2018-03-19T05:46:00.439Z,8.1
2018-03-19T05:55:59.279Z,8.4
2018-03-19T06:05:58.233Z,8.3
2018-03-19T06:15:57.350Z,7.9
2018-03-19T06:25:56.560Z,7.6
2018-03-19T06:35:55.840Z,7.3
2018-03-19T06:45:55.124Z,7.4
2018-03-19T06:55:54.649Z,7.6
2018-03-19T07:05:53.754Z,7.7
2018-03-19T07:15:52.830Z,8.3
2018-03-19T07:25:52.195Z,8.1
2018-03-19T07:35:51.304Z,8.6
2018-03-19T07:45:50.411Z,8.9
2018-03-19T07:55:49.517Z,9.1
2018-03-19T08:05:48.980Z,9.3
2018-03-19T08:15:48.098Z,9.5
2018-03-19T08:25:47.009Z,9.5
2018-03-19T08:35:46.570Z,9.5
2018-03-19T08:45:45.615Z,9.3
2018-03-19T08:55:45.322Z,9.6
2018-03-19T09:05:44.059Z,9.9
2018-03-19T09:15:43.620Z,10.2
2018-03-19T09:25:42.550Z,10.5
2018-03-19T09:35:41.550Z,10.1
2018-03-19T09:45:41.132Z,9.6
2018-03-19T09:55:40.267Z,9.5
2018-03-19T10:05:39.098Z,9.6
2018-03-19T10:15:38.422Z,9.3
2018-03-19T10:25:37.846Z,9.4
2018-03-19T10:35:36.931Z,9
2018-03-19T10:45:36.356Z,9.1
2018-03-19T10:55:35.330Z,9
2018-03-19T11:05:34.390Z,8.9
2018-03-19T11:15:33.909Z,8.8
2018-03-19T11:25:33.063Z,8.7
2018-03-19T11:35:31.956Z,8.4
2018-03-19T11:45:31.552Z,8.4
2018-03-19T11:55:30.685Z,8.2
2018-03-19T12:05:29.772Z,7.6
2018-03-19T12:15:29.211Z,7.4
2018-03-19T12:25:28.666Z,7.3
2018-03-19T12:35:27.615Z,6.9
2018-03-19T12:45:26.848Z,6.9
2018-03-19T12:55:26.222Z,6.7
2018-03-19T13:05:25.344Z,6.4
2018-03-19T13:15:24.334Z,6.2
2018-03-19T13:25:23.463Z,6.2
2018-03-19T13:35:22.978Z,6.1
2018-03-19T13:45:21.855Z,5.8
2018-03-19T13:55:20.947Z,5.8
2018-03-19T14:05:20.520Z,5.5
2018-03-19T14:15:19.844Z,5.3
2018-03-19T14:25:18.950Z,4.9
2018-03-19T14:35:17.834Z,4.8
2018-03-19T14:45:17.569Z,4.7
2018-03-19T14:55:16.180Z,4.5
2018-03-19T15:05:15.670Z,4.4
2018-03-19T15:15:14.940Z,4.4
2018-03-19T15:25:13.835Z,4.3
2018-03-19T15:35:13.012Z,4.1
2018-03-19T15:45:12.485Z,3.9
2018-03-19T15:55:11.559Z,3.8
2018-03-19T16:05:10.745Z,3.4
2018-03-19T16:15:10.216Z,3.3
2018-03-19T16:25:09.146Z,3.3
2018-03-19T16:35:08.347Z,3.8
2018-03-19T16:45:07.981Z,4.9
2018-03-19T16:55:06.747Z,5.6
2018-03-19T17:05:06.307Z,6
2018-03-19T17:15:05.524Z,6.4
2018-03-19T17:25:04.826Z,6.5
2018-03-19T17:35:03.930Z,6.5
2018-03-19T17:45:03.385Z,6.4
2018-03-19T17:55:02.153Z,6.5
2018-03-19T18:05:01.385Z,6.5
2018-03-19T18:15:00.751Z,6.6
2018-03-19T18:25:00.071Z,6.7
2018-03-19T18:34:59.535Z,6.8
2018-03-19T18:44:58.552Z,6.8
2018-03-19T18:54:57.711Z,6.8
2018-03-19T19:04:56.913Z,6.6
2018-03-19T19:14:55.827Z,6.6
2018-03-19T19:24:55.535Z,6.8
2018-03-19T19:34:54.485Z,6.9
2018-03-19T19:44:53.515Z,7.1
2018-03-19T19:54:52.676Z,7.2
2018-03-19T20:04:52.101Z,7.3
2018-03-19T20:14:51.433Z,7.3
2018-03-19T20:24:50.544Z,7.3
2018-03-19T20:34:49.980Z,7.2
2018-03-19T20:44:48.810Z,7
2018-03-19T20:54:47.853Z,7.1
2018-03-19T21:04:47.348Z,7
2018-03-19T21:14:46.314Z,7
2018-03-19T21:24:45.726Z,6.9
2018-03-19T21:34:45.281Z,7
2018-03-19T21:44:44.133Z,7.1
2018-03-19T21:54:43.230Z,7.1
2018-03-19T22:04:42.606Z,7.1
2018-03-19T22:14:41.441Z,7.1
2018-03-19T22:24:41.075Z,7.3
2018-03-19T22:34:40.111Z,7.4
2018-03-19T22:44:39.245Z,7.5
2018-03-19T22:54:38.612Z,7.5
2018-03-19T23:04:38.098Z,7.6
2018-03-19T23:14:36.810Z,7.8
2018-03-19T23:24:35.881Z,7.8
2018-03-19T23:34:35.404Z,7.9
2018-03-19T23:44:34.558Z,8.1
2018-03-19T23:54:34.295Z,8.3
